createdAt,value
2022-12-18T00:00:03.716Z,-1.06
2022-12-18T00:02:41.427Z,-0.98
2022-12-18T00:05:09.549Z,-0.83
2022-12-18T00:07:37.306Z,-1.06
2022-12-18T00:10:05.604Z,-1.17
2022-12-18T00:12:33.654Z,-1.02
2022-12-18T00:15:01.395Z,-0.20
2022-12-18T00:17:29.104Z,0.24
2022-12-18T00:19:57.392Z,0.09
2022-12-18T00:22:25.058Z,-0.78
2022-12-18T00:24:52.693Z,-0.90
2022-12-18T00:27:20.721Z,-1.03
2022-12-18T00:29:49.235Z,-1.03
2022-12-18T00:32:16.921Z,-0.89
2022-12-18T00:34:44.915Z,-1.01
2022-12-18T00:37:16.837Z,-0.84
2022-12-18T00:39:51.868Z,-0.96
2022-12-18T00:42:20.830Z,-0.74
2022-12-18T00:44:49.222Z,-0.83
2022-12-18T00:47:16.898Z,-0.55
2022-12-18T00:49:44.630Z,-0.49
2022-12-18T00:52:12.572Z,-0.39
2022-12-18T00:54:40.342Z,-0.66
2022-12-18T00:57:08.036Z,-0.82
2022-12-18T00:59:36.034Z,-0.80
2022-12-18T01:02:03.810Z,-0.55
2022-12-18T01:04:35.418Z,-0.43
2022-12-18T01:07:03.327Z,-0.59
2022-12-18T01:09:33.141Z,-0.59
2022-12-18T01:12:00.770Z,-0.55
2022-12-18T01:14:28.809Z,-0.51
2022-12-18T01:16:56.501Z,-0.53
2022-12-18T01:19:27.963Z,-0.53
2022-12-18T01:21:55.958Z,-0.46
2022-12-18T01:24:23.751Z,-0.49
2022-12-18T01:26:51.501Z,-0.57
2022-12-18T01:29:19.387Z,-0.34
2022-12-18T01:31:47.211Z,-0.40
2022-12-18T01:34:14.967Z,-0.49
2022-12-18T01:36:42.871Z,-0.53
2022-12-18T01:39:12.738Z,-0.74
2022-12-18T01:41:43.111Z,-0.52
2022-12-18T01:44:48.946Z,-0.70
2022-12-18T01:47:45.529Z,-0.51
2022-12-18T01:50:21.561Z,-0.40
2022-12-18T01:53:16.528Z,-0.42
2022-12-18T01:55:55.866Z,-0.38
2022-12-18T01:58:45.356Z,-0.37
2022-12-18T02:01:13.572Z,-0.69
2022-12-18T02:03:45.314Z,-0.65
2022-12-18T02:06:31.686Z,-0.84
2022-12-18T02:09:10.976Z,-0.76
2022-12-18T02:11:55.173Z,-0.67
2022-12-18T02:14:22.981Z,-0.75
2022-12-18T02:16:59.821Z,-0.81
2022-12-18T02:19:38.485Z,-0.54
2022-12-18T02:22:19.127Z,-0.39
2022-12-18T02:25:06.510Z,-0.42
2022-12-18T02:27:35.704Z,-0.76
2022-12-18T02:30:05.389Z,-0.93
2022-12-18T02:32:36.898Z,-0.81
2022-12-18T02:35:07.720Z,-0.91
2022-12-18T02:37:36.944Z,-0.79
2022-12-18T02:40:06.229Z,-0.32
2022-12-18T02:42:34.333Z,0.26
2022-12-18T02:45:02.895Z,-0.18
2022-12-18T02:47:35.387Z,-0.08
2022-12-18T02:50:39.445Z,-1.17
2022-12-18T02:53:12.614Z,-0.96
2022-12-18T02:56:00.353Z,-1.10
2022-12-18T02:58:54.637Z,-0.11
2022-12-18T03:01:42.546Z,0.05
2022-12-18T03:04:19.539Z,-0.95
2022-12-18T03:06:50.615Z,-0.93
2022-12-18T03:09:22.486Z,-0.96
2022-12-18T03:11:56.232Z,-0.14
2022-12-18T03:14:25.116Z,0.36
2022-12-18T03:16:55.181Z,0.38
2022-12-18T03:19:26.900Z,-0.56
2022-12-18T03:21:58.893Z,-0.88
2022-12-18T03:24:29.112Z,-0.90
2022-12-18T03:27:03.616Z,-0.87
2022-12-18T03:29:45.377Z,-0.91
2022-12-18T03:32:22.403Z,-0.83
2022-12-18T03:34:52.952Z,-1.05
2022-12-18T03:37:21.961Z,-0.97
2022-12-18T03:39:49.671Z,-1.18
2022-12-18T03:42:23.326Z,-0.95
2022-12-18T03:44:55.452Z,-1.08
2022-12-18T03:47:26.001Z,-0.93
2022-12-18T03:50:19.027Z,-1.13
2022-12-18T03:52:58.177Z,-1.05
2022-12-18T03:55:27.511Z,-1.14
2022-12-18T03:57:56.626Z,-1.24
2022-12-18T04:00:25.964Z,-1.33
2022-12-18T04:02:55.761Z,-1.31
2022-12-18T04:05:25.692Z,-1.52
2022-12-18T04:07:54.262Z,-1.59
2022-12-18T04:10:22.849Z,-1.58
2022-12-18T04:12:50.506Z,-1.61
2022-12-18T04:15:18.172Z,-1.68
2022-12-18T04:17:50.319Z,-1.16
2022-12-18T04:20:18.644Z,-1.77
2022-12-18T04:22:46.695Z,-1.81
2022-12-18T04:25:14.535Z,-2.00
2022-12-18T04:27:47.813Z,-2.01
2022-12-18T04:30:15.721Z,-2.02
2022-12-18T04:32:46.486Z,-2.05
2022-12-18T04:35:17.491Z,-1.34
2022-12-18T04:37:46.185Z,-1.80
2022-12-18T04:40:13.890Z,-2.21
2022-12-18T04:42:42.107Z,-2.20
2022-12-18T04:45:10.071Z,-2.27
2022-12-18T04:47:37.827Z,-2.43
2022-12-18T04:50:06.333Z,-2.14
2022-12-18T04:52:34.052Z,-1.35
2022-12-18T04:55:01.726Z,-2.19
2022-12-18T04:57:29.618Z,-1.24
2022-12-18T04:59:57.375Z,-1.59
2022-12-18T05:02:25.119Z,-2.18
2022-12-18T05:04:53.157Z,-2.22
2022-12-18T05:07:20.733Z,-2.26
2022-12-18T05:09:48.351Z,-2.21
2022-12-18T05:12:16.332Z,-1.03
2022-12-18T05:14:43.912Z,-1.78
2022-12-18T05:17:11.507Z,-2.08
2022-12-18T05:19:39.762Z,-2.11
2022-12-18T05:22:07.491Z,-2.27
2022-12-18T05:24:35.513Z,-2.11
2022-12-18T05:27:03.674Z,-2.10
2022-12-18T05:29:31.409Z,-2.20
2022-12-18T05:31:59.041Z,-2.19
2022-12-18T05:34:26.969Z,-2.15
2022-12-18T05:36:54.597Z,-2.19
2022-12-18T05:39:22.285Z,-2.06
2022-12-18T05:41:50.175Z,-2.03
2022-12-18T05:44:17.852Z,-2.03
2022-12-18T05:46:45.526Z,-1.88
2022-12-18T05:49:13.382Z,-2.03
2022-12-18T05:51:41.248Z,-2.13
2022-12-18T05:54:09.161Z,-2.19
2022-12-18T05:56:37.019Z,-2.39
2022-12-18T05:59:05.094Z,-2.32
2022-12-18T06:01:32.824Z,-2.27
2022-12-18T06:04:00.875Z,-2.26
2022-12-18T06:06:29.195Z,-2.28
2022-12-18T06:08:58.187Z,-2.21
2022-12-18T06:11:27.266Z,-2.07
2022-12-18T06:13:59.031Z,-2.22
2022-12-18T06:16:30.872Z,-2.47
2022-12-18T06:19:04.830Z,-2.63
2022-12-18T06:21:33.137Z,-2.48
2022-12-18T06:24:01.505Z,-2.63
2022-12-18T06:26:29.109Z,-2.47
2022-12-18T06:28:57.077Z,-2.34
2022-12-18T06:31:25.455Z,-2.43
2022-12-18T06:33:53.104Z,-2.44
2022-12-18T06:36:21.018Z,-2.23
2022-12-18T06:38:48.672Z,-2.38
2022-12-18T06:41:18.563Z,-2.36
2022-12-18T06:43:46.699Z,-2.52
2022-12-18T06:46:14.792Z,-2.48
2022-12-18T06:48:42.644Z,-2.39
2022-12-18T06:51:11.570Z,-2.43
2022-12-18T06:53:39.920Z,-2.48
2022-12-18T06:56:10.558Z,-2.62
2022-12-18T06:58:41.167Z,-2.43
2022-12-18T07:01:11.392Z,-2.35
2022-12-18T07:03:41.510Z,-2.44
2022-12-18T07:06:17.143Z,-2.32
2022-12-18T07:08:46.044Z,-2.39
2022-12-18T07:11:13.967Z,-2.42
2022-12-18T07:13:44.699Z,-2.14
2022-12-18T07:16:21.103Z,-2.20
2022-12-18T07:18:50.088Z,-2.10
2022-12-18T07:21:19.899Z,-2.06
2022-12-18T07:23:47.772Z,-2.16
2022-12-18T07:26:20.261Z,-2.11
2022-12-18T07:28:48.829Z,-2.04
2022-12-18T07:31:19.142Z,-2.26
2022-12-18T07:33:47.277Z,-2.17
2022-12-18T07:36:15.233Z,-2.08
2022-12-18T07:38:43.175Z,-1.93
2022-12-18T07:41:12.840Z,-2.04
2022-12-18T07:43:42.031Z,-1.98
2022-12-18T07:46:10.842Z,-1.67
2022-12-18T07:48:41.894Z,-1.56
2022-12-18T07:51:09.868Z,-1.51
2022-12-18T07:53:38.247Z,-1.50
2022-12-18T07:58:57.261Z,-1.41
2022-12-18T08:01:25.717Z,-1.31
2022-12-18T08:03:53.791Z,-1.22
2022-12-18T08:06:23.848Z,-1.05
2022-12-18T08:08:53.308Z,-1.05
2022-12-18T08:11:21.650Z,-1.02
2022-12-18T08:13:49.553Z,-0.90
2022-12-18T08:16:18.437Z,-0.67
2022-12-18T08:18:46.611Z,-0.60
2022-12-18T08:21:17.333Z,-0.54
2022-12-18T08:23:45.582Z,-0.37
2022-12-18T08:26:13.865Z,-0.25
2022-12-18T08:28:41.975Z,0.11
2022-12-18T08:31:18.745Z,0.24
2022-12-18T08:33:46.720Z,0.13
2022-12-18T08:36:14.666Z,0.24
2022-12-18T08:38:42.317Z,0.28
2022-12-18T08:41:12.498Z,0.38
2022-12-18T08:43:41.059Z,0.43
2022-12-18T08:46:08.918Z,0.49
2022-12-18T08:48:36.978Z,0.26
2022-12-18T08:51:04.774Z,0.56
2022-12-18T08:53:35.596Z,0.43
2022-12-18T08:56:04.793Z,0.82
2022-12-18T08:58:32.654Z,0.98
2022-12-18T09:01:05.179Z,0.77
2022-12-18T09:03:33.547Z,1.49
2022-12-18T09:06:01.333Z,2.09
2022-12-18T09:08:29.766Z,1.69
2022-12-18T09:10:58.036Z,1.43
2022-12-18T09:13:26.108Z,1.38
2022-12-18T09:15:55.570Z,1.42
2022-12-18T09:18:24.695Z,1.63
2022-12-18T09:20:52.420Z,1.49
2022-12-18T09:23:20.509Z,1.84
2022-12-18T09:25:48.538Z,1.78
2022-12-18T09:28:19.620Z,1.84
2022-12-18T09:30:49.387Z,1.29
2022-12-18T09:33:20.253Z,1.64
2022-12-18T09:35:48.362Z,1.72
2022-12-18T09:38:18.313Z,1.81
2022-12-18T09:40:49.705Z,2.03
2022-12-18T09:43:25.717Z,2.41
2022-12-18T09:46:03.623Z,2.24
2022-12-18T09:48:34.498Z,2.30
2022-12-18T09:51:15.763Z,2.24
2022-12-18T09:53:47.557Z,1.73
2022-12-18T09:56:18.474Z,2.01
2022-12-18T09:59:00.208Z,1.76
2022-12-18T10:01:38.788Z,2.51
2022-12-18T10:04:09.946Z,2.65
2022-12-18T10:06:46.177Z,2.21
2022-12-18T10:09:17.088Z,2.69
2022-12-18T10:11:50.166Z,2.88
2022-12-18T10:14:30.474Z,2.78
2022-12-18T10:17:16.799Z,2.76
2022-12-18T10:19:54.645Z,2.97
2022-12-18T10:22:40.999Z,2.80
2022-12-18T10:25:23.485Z,2.94
2022-12-18T10:27:54.511Z,3.15
2022-12-18T10:30:23.912Z,2.69
2022-12-18T10:32:53.108Z,2.33
2022-12-18T10:35:27.605Z,3.63
2022-12-18T10:38:16.916Z,3.69
2022-12-18T10:40:57.802Z,4.72
2022-12-18T10:43:36.696Z,5.04
2022-12-18T10:46:10.053Z,3.27
2022-12-18T10:48:48.282Z,2.89
2022-12-18T10:51:27.714Z,3.08
2022-12-18T10:54:07.890Z,3.52
2022-12-18T10:56:37.683Z,3.61
2022-12-18T10:59:13.593Z,3.62
2022-12-18T11:01:56.033Z,3.54
2022-12-18T11:04:32.636Z,3.77
2022-12-18T11:07:00.161Z,2.98
2022-12-18T11:09:30.487Z,3.50
2022-12-18T11:12:00.677Z,3.43
2022-12-18T11:14:55.708Z,3.90
2022-12-18T11:17:32.658Z,3.89
2022-12-18T11:20:02.873Z,4.28
2022-12-18T11:22:32.661Z,4.23
2022-12-18T11:28:36.819Z,4.51
2022-12-18T11:31:24.662Z,4.07
2022-12-18T11:34:28.535Z,4.86
2022-12-18T11:36:59.394Z,4.99
2022-12-18T11:39:35.785Z,5.92
2022-12-18T11:42:18.378Z,6.10
2022-12-18T11:44:55.156Z,6.60
2022-12-18T11:47:28.802Z,6.77
2022-12-18T11:49:57.166Z,7.04
2022-12-18T11:52:27.817Z,7.33
2022-12-18T11:55:21.558Z,8.02
2022-12-18T11:58:02.757Z,7.85
2022-12-18T12:00:30.580Z,7.60
2022-12-18T12:03:20.864Z,6.84
2022-12-18T12:06:04.577Z,6.67
2022-12-18T12:08:58.798Z,7.06
2022-12-18T12:11:38.517Z,6.49
2022-12-18T12:14:28.313Z,5.83
2022-12-18T12:17:14.556Z,5.86
2022-12-18T12:20:03.654Z,5.26
2022-12-18T12:22:56.369Z,5.28
2022-12-18T12:25:32.194Z,5.01
2022-12-18T12:28:05.869Z,5.31
2022-12-18T12:30:52.529Z,5.91
2022-12-18T12:33:32.579Z,5.77
2022-12-18T12:36:03.376Z,5.04
2022-12-18T12:38:52.125Z,5.47
2022-12-18T12:41:33.084Z,5.32
2022-12-18T12:44:04.319Z,5.08
2022-12-18T12:46:34.271Z,4.82
2022-12-18T12:49:11.260Z,5.10
2022-12-18T12:51:44.858Z,4.52
2022-12-18T12:54:24.562Z,4.86
2022-12-18T12:57:13.207Z,4.37
2022-12-18T12:59:51.276Z,4.44
2022-12-18T13:02:43.572Z,3.52
2022-12-18T13:05:40.197Z,3.85
2022-12-18T13:08:11.260Z,3.97
2022-12-18T13:10:40.805Z,4.93
2022-12-18T13:13:47.039Z,4.70
2022-12-18T13:16:06.942Z,5.12
2022-12-18T13:18:35.549Z,4.60
2022-12-18T13:21:10.084Z,5.14
2022-12-18T13:23:39.753Z,4.45
2022-12-18T13:26:07.812Z,4.62
2022-12-18T13:28:48.240Z,4.82
2022-12-18T13:31:39.543Z,4.74
2022-12-18T13:34:29.455Z,5.67
2022-12-18T13:37:32.949Z,5.49
2022-12-18T13:40:00.810Z,4.89
2022-12-18T13:42:41.387Z,3.88
2022-12-18T13:45:43.957Z,3.96
2022-12-18T13:48:22.689Z,3.99
2022-12-18T13:51:07.834Z,3.72
2022-12-18T13:53:56.010Z,3.82
2022-12-18T13:56:32.545Z,3.74
2022-12-18T13:59:15.455Z,3.03
2022-12-18T14:01:58.962Z,3.38
2022-12-18T14:04:29.689Z,3.16
2022-12-18T14:06:59.985Z,3.08
2022-12-18T14:09:31.509Z,3.20
2022-12-18T14:12:00.722Z,2.86
2022-12-18T14:14:32.526Z,2.85
2022-12-18T14:17:02.011Z,2.94
2022-12-18T14:19:35.342Z,2.96
2022-12-18T14:22:03.092Z,2.99
2022-12-18T14:24:31.091Z,3.02
2022-12-18T14:27:14.385Z,2.98
2022-12-18T14:29:44.058Z,4.33
2022-12-18T14:32:17.720Z,3.24
2022-12-18T14:34:50.645Z,2.91
2022-12-18T14:37:22.932Z,2.78
2022-12-18T14:39:59.238Z,2.58
2022-12-18T14:42:28.111Z,2.56
2022-12-18T14:45:39.131Z,2.24
2022-12-18T14:48:14.268Z,2.06
2022-12-18T14:50:44.755Z,2.07
2022-12-18T14:53:33.299Z,2.04
2022-12-18T14:56:01.766Z,1.90
2022-12-18T14:58:29.508Z,1.83
2022-12-18T15:00:57.363Z,2.03
2022-12-18T15:03:26.332Z,1.73
2022-12-18T15:05:54.669Z,1.63
2022-12-18T15:08:40.597Z,1.50
2022-12-18T15:11:46.487Z,1.40
2022-12-18T15:14:36.475Z,1.38
2022-12-18T15:17:27.433Z,1.30
2022-12-18T15:20:01.794Z,1.10
2022-12-18T15:22:39.107Z,1.13
2022-12-18T15:25:28.667Z,1.14
2022-12-18T15:27:57.321Z,0.91
2022-12-18T15:30:26.557Z,0.85
2022-12-18T15:33:17.744Z,0.97
2022-12-18T15:35:47.280Z,1.26
2022-12-18T15:38:15.578Z,2.08
2022-12-18T15:40:44.733Z,1.37
2022-12-18T15:43:12.944Z,0.76
2022-12-18T15:45:41.123Z,0.67
2022-12-18T15:48:21.480Z,0.74
2022-12-18T15:50:56.140Z,0.80
2022-12-18T15:53:31.430Z,0.65
2022-12-18T15:56:01.298Z,0.63
2022-12-18T15:58:29.990Z,0.57
2022-12-18T16:01:00.021Z,0.56
2022-12-18T16:03:28.439Z,0.59
2022-12-18T16:05:57.502Z,0.60
2022-12-18T16:08:26.639Z,0.56
2022-12-18T16:10:54.674Z,0.49
2022-12-18T16:13:22.391Z,0.43
2022-12-18T16:15:50.715Z,0.32
2022-12-18T16:18:19.036Z,0.25
2022-12-18T16:20:46.870Z,0.07
2022-12-18T16:23:14.946Z,0.13
2022-12-18T16:25:43.138Z,0.19
2022-12-18T16:28:11.073Z,0.17
2022-12-18T16:30:39.555Z,0.14
2022-12-18T16:33:10.563Z,0.10
2022-12-18T16:35:38.688Z,-0.01
2022-12-18T16:38:06.613Z,0.01
2022-12-18T16:40:37.316Z,-0.04
2022-12-18T16:43:05.217Z,0.05
2022-12-18T16:45:35.562Z,0.13
2022-12-18T16:48:04.708Z,-0.26
2022-12-18T16:50:32.611Z,-0.33
2022-12-18T16:53:01.808Z,-0.37
2022-12-18T16:55:30.066Z,-0.21
2022-12-18T16:57:58.442Z,0.26
2022-12-18T17:00:26.503Z,-0.31
2022-12-18T17:02:58.067Z,-0.27
2022-12-18T17:05:25.843Z,-0.33
2022-12-18T17:07:53.807Z,-0.46
2022-12-18T17:10:21.866Z,-0.43
2022-12-18T17:12:51.330Z,-0.52
2022-12-18T17:15:19.426Z,-0.63
2022-12-18T17:17:51.357Z,-0.66
2022-12-18T17:20:19.317Z,-0.33
2022-12-18T17:22:48.742Z,-0.68
2022-12-18T17:25:17.468Z,-0.70
2022-12-18T17:27:46.562Z,-0.77
2022-12-18T17:30:14.863Z,-0.79
2022-12-18T17:32:43.199Z,-0.78
2022-12-18T17:35:11.326Z,-0.73
2022-12-18T17:37:41.052Z,-0.81
2022-12-18T17:40:09.974Z,-0.94
2022-12-18T17:42:37.797Z,-0.89
2022-12-18T17:45:06.230Z,-1.18
2022-12-18T17:47:34.551Z,-1.14
2022-12-18T17:50:03.131Z,-1.06
2022-12-18T17:52:31.208Z,-1.11
2022-12-18T17:55:00.625Z,-1.19
2022-12-18T17:57:28.509Z,-1.12
2022-12-18T17:59:56.476Z,-1.08
2022-12-18T18:02:24.669Z,-1.09
2022-12-18T18:04:53.062Z,-1.25
2022-12-18T18:07:20.758Z,-1.22
2022-12-18T18:09:48.857Z,-1.26
2022-12-18T18:12:17.249Z,-1.28
2022-12-18T18:14:45.111Z,-1.29
2022-12-18T18:17:15.175Z,-1.23
2022-12-18T18:19:44.833Z,-1.21
2022-12-18T18:22:17.212Z,-1.16
2022-12-18T18:24:47.008Z,-1.26
2022-12-18T18:27:14.998Z,-1.40
2022-12-18T18:29:42.909Z,-1.50
2022-12-18T18:32:11.577Z,-1.55
2022-12-18T18:34:51.517Z,-1.61
2022-12-18T18:37:20.306Z,-1.10
2022-12-18T18:39:48.410Z,-1.52
2022-12-18T18:42:16.507Z,-1.60
2022-12-18T18:44:48.955Z,-1.51
2022-12-18T18:47:17.109Z,-1.63
2022-12-18T18:49:45.482Z,-1.64
2022-12-18T18:52:13.685Z,-1.60
2022-12-18T18:55:03.585Z,-1.69
2022-12-18T18:57:30.852Z,-1.59
2022-12-18T18:59:58.920Z,-1.80
2022-12-18T19:02:27.059Z,-1.72
2022-12-18T19:04:55.282Z,-1.59
2022-12-18T19:07:30.531Z,-1.59
2022-12-18T19:10:04.625Z,-1.59
2022-12-18T19:12:34.647Z,-1.72
2022-12-18T19:15:05.893Z,-1.82
2022-12-18T19:17:34.132Z,-1.84
2022-12-18T19:20:04.851Z,-1.78
2022-12-18T19:22:33.206Z,-1.87
2022-12-18T19:25:00.910Z,-1.77
2022-12-18T19:27:29.049Z,-1.75
2022-12-18T19:29:57.374Z,-1.92
2022-12-18T19:32:25.344Z,-1.97
2022-12-18T19:34:53.442Z,-1.84
2022-12-18T19:37:21.582Z,-2.03
2022-12-18T19:39:50.944Z,-2.05
2022-12-18T19:42:24.586Z,-1.99
2022-12-18T19:44:54.614Z,-2.05
2022-12-18T19:47:22.507Z,-2.05
2022-12-18T19:49:50.455Z,-1.98
2022-12-18T19:52:18.533Z,-1.99
2022-12-18T19:54:46.620Z,-1.88
2022-12-18T19:57:14.740Z,-1.78
2022-12-18T19:59:44.464Z,-1.92
2022-12-18T20:02:14.452Z,-1.07
2022-12-18T20:04:42.603Z,-1.22
2022-12-18T20:07:10.420Z,-2.16
2022-12-18T20:09:38.767Z,-2.12
2022-12-18T20:12:07.918Z,-2.09
2022-12-18T20:14:39.586Z,-2.23
2022-12-18T20:17:08.263Z,-2.19
2022-12-18T20:19:36.613Z,-2.22
2022-12-18T20:22:05.562Z,-2.19
2022-12-18T20:24:33.980Z,-2.19
2022-12-18T20:27:03.302Z,-2.23
2022-12-18T20:29:31.250Z,-2.27
2022-12-18T20:32:00.202Z,-2.21
2022-12-18T20:34:28.556Z,-2.14
2022-12-18T20:36:56.209Z,-2.18
2022-12-18T20:39:25.461Z,-2.10
2022-12-18T20:41:53.827Z,-2.04
2022-12-18T20:44:24.067Z,-2.24
2022-12-18T20:46:57.160Z,-2.08
2022-12-18T20:49:26.298Z,-2.17
2022-12-18T20:51:56.632Z,-2.10
2022-12-18T20:54:26.554Z,-2.32
2022-12-18T20:56:55.539Z,-2.25
2022-12-18T20:59:23.610Z,-2.33
2022-12-18T21:01:54.996Z,-2.35
2022-12-18T21:04:23.513Z,-2.40
2022-12-18T21:06:58.020Z,-2.34
2022-12-18T21:09:30.379Z,-2.42
2022-12-18T21:12:15.478Z,-2.51
2022-12-18T21:14:44.417Z,-2.61
2022-12-18T21:17:12.286Z,-2.44
2022-12-18T21:19:40.868Z,-2.40
2022-12-18T21:22:10.073Z,-2.57
2022-12-18T21:24:37.893Z,-2.51
2022-12-18T21:27:05.566Z,-2.55
2022-12-18T21:29:33.813Z,-2.70
2022-12-18T21:32:02.696Z,-2.53
2022-12-18T21:34:31.341Z,-2.48
2022-12-18T21:37:00.424Z,-2.54
2022-12-18T21:39:29.386Z,-2.42
2022-12-18T21:41:57.519Z,-2.32
2022-12-18T21:44:26.538Z,-1.42
2022-12-18T21:46:59.831Z,-1.07
2022-12-18T21:49:31.747Z,-1.14
2022-12-18T21:52:00.544Z,-1.78
2022-12-18T21:54:29.246Z,-1.99
2022-12-18T21:56:59.118Z,-2.16
2022-12-18T21:59:34.865Z,-2.23
2022-12-18T22:02:21.798Z,-2.04
2022-12-18T22:04:49.829Z,-2.01
2022-12-18T22:07:17.428Z,-1.94
2022-12-18T22:09:45.362Z,-1.98
2022-12-18T22:12:13.641Z,-1.84
2022-12-18T22:14:41.424Z,-1.90
2022-12-18T22:17:09.139Z,-1.92
2022-12-18T22:19:42.849Z,-1.86
2022-12-18T22:22:11.013Z,-1.84
2022-12-18T22:24:39.109Z,-1.84
2022-12-18T22:27:06.690Z,-1.86
2022-12-18T22:29:35.293Z,-1.90
2022-12-18T22:32:04.574Z,-1.81
2022-12-18T22:34:36.588Z,-1.67
2022-12-18T22:37:05.091Z,-1.63
2022-12-18T22:39:33.071Z,-1.79
2022-12-18T22:42:01.270Z,-1.75
2022-12-18T22:44:29.461Z,-1.63
2022-12-18T22:47:06.921Z,-1.53
2022-12-18T22:49:36.362Z,-1.72
2022-12-18T22:52:04.883Z,-1.72
2022-12-18T22:54:33.119Z,-1.60
2022-12-18T22:57:01.086Z,-1.57
2022-12-18T22:59:28.749Z,-1.58
2022-12-18T23:01:59.060Z,-1.51
2022-12-18T23:04:27.689Z,-1.15
2022-12-18T23:06:58.811Z,-1.56
2022-12-18T23:09:26.375Z,-1.59
2022-12-18T23:11:54.341Z,-1.71
2022-12-18T23:14:22.016Z,-1.73
2022-12-18T23:16:53.460Z,-1.70
2022-12-18T23:19:22.689Z,-1.35
2022-12-18T23:21:51.797Z,-1.72
2022-12-18T23:24:22.394Z,-1.68
2022-12-18T23:26:50.031Z,-1.60
2022-12-18T23:29:17.701Z,-1.69
2022-12-18T23:31:46.239Z,-1.63
2022-12-18T23:34:14.702Z,-1.66
2022-12-18T23:36:46.385Z,-1.70
2022-12-18T23:39:17.460Z,-1.82
2022-12-18T23:41:58.659Z,-1.69
2022-12-18T23:44:26.615Z,-1.68
2022-12-18T23:46:54.801Z,-1.69
2022-12-18T23:49:22.693Z,-1.77
2022-12-18T23:51:50.941Z,-1.76
2022-12-18T23:54:22.364Z,-1.73
2022-12-18T23:56:59.690Z,-1.68
2022-12-18T23:59:30.643Z,-1.63
